Salem, MA

2:12 PM EDT on October 01, 2016 (GMT -0400)
Chestnut Street | | Change Station

Elev 56 ft 42.52 °N, 70.90 °W | Updated 6 seconds ago

Light Rain
Light Rain Mist
57.2 °F
Feels Like 57.2 °F
N
0.0
Wind Variable Wind from South
Gusts 0.0 mph

Today
High -- | Low -- °F
--% Chance of Precip.
Yesterday
High -- | Low -- °F
Precip. -- in
Pressure 30.24 in
Visibility 1.5 miles
Clouds Overcast 500 ft
Dew Point 57 °F
Humidity 99%
Rainfall 0.00 in
Snow Depth Not available.
6:41 AM 6:24 PM
New Moon, 1% visible
METAR KBVY 011753Z 03009G18KT 1 1/2SM -RA BR OVC005 14/14 A3025 RMK AO2 RAE00B48 CIG 004V010 SLP240 P0001 60011 T01390139 10144 20133 58014 $
Pressure 30.24 in
Visibility 1.5 miles
Clouds Overcast 500 ft
Dew Point 57 °F
Humidity 99%
Rainfall 0.00 in
Snow Depth Not available.
6:41 AM 6:24 PM
New Moon, 1% visible
METAR KBVY 011753Z 03009G18KT 1 1/2SM -RA BR OVC005 14/14 A3025 RMK AO2 RAE00B48 CIG 004V010 SLP240 P0001 60011 T01390139 10144 20133 58014 $

10-Day Weather Forecast

Almanac

Astronomy

Oct. 01, 2016 Rise Set
Actual Time
Civil Twilight
Nautical Twilight
Astronomical Twilight
Moon
Length of Visible Light
Length of Day
Tomorrow will be .
, % of the Moon is Illuminated

Today's Extremes

State Highs State Lows

Community

WunderPhotos

Upload Photos

1,942,981 photos uploaded!

WunderBlog® & News

Nearby

Air Quality

  Air Quality AQ Index Pollutant
Not available.

Snow Depth

Station Depth Elevation

Earthquake Activity

City Distance Mag. Time & Date
Minimum magnitude displayed is 2.5.

Coastal Water Temperatures

Place Temperature

Stations

Nearby Weather Stations

Station Location Temp. Windchill Dew Point Humidity Wind Precip. Elev Updated Type
                   

Watches & Warnings

There are currently no watches in effect.